sensor_id;sensor_type;location;lat;lon;timestamp;P1;durP1;ratioP1;P2;durP2;ratioP2
61104;SDS011;46987;32.638;-115.438;2023-03-14T00:01:00;5.10;;;0.90;;
61104;SDS011;46987;32.638;-115.438;2023-03-14T00:03:33;9.57;;;1.27;;
61104;SDS011;46987;32.638;-115.438;2023-03-14T00:06:01;7.55;;;1.00;;
61104;SDS011;46987;32.638;-115.438;2023-03-14T00:08:28;4.68;;;1.02;;
61104;SDS011;46987;32.638;-115.438;2023-03-14T00:10:54;6.65;;;1.05;;
61104;SDS011;46987;32.638;-115.438;2023-03-14T00:13:21;5.35;;;0.90;;
61104;SDS011;46987;32.638;-115.438;2023-03-14T00:15:49;8.57;;;2.10;;
61104;SDS011;46987;32.638;-115.438;2023-03-14T00:18:16;9.50;;;2.13;;
61104;SDS011;46987;32.638;-115.438;2023-03-14T00:20:42;6.95;;;1.48;;
61104;SDS011;46987;32.638;-115.438;2023-03-14T00:23:09;9.35;;;1.58;;
61104;SDS011;46987;32.638;-115.438;2023-03-14T00:25:35;6.72;;;1.23;;
61104;SDS011;46987;32.638;-115.438;2023-03-14T00:28:02;8.43;;;1.20;;
61104;SDS011;46987;32.638;-115.438;2023-03-14T00:30:29;5.97;;;1.00;;
61104;SDS011;46987;32.638;-115.438;2023-03-14T00:32:57;5.82;;;1.25;;
61104;SDS011;46987;32.638;-115.438;2023-03-14T00:35:23;10.27;;;1.20;;
61104;SDS011;46987;32.638;-115.438;2023-03-14T00:37:52;3.70;;;0.90;;
61104;SDS011;46987;32.638;-115.438;2023-03-14T00:40:19;5.28;;;1.10;;
61104;SDS011;46987;32.638;-115.438;2023-03-14T00:42:48;7.28;;;1.25;;
61104;SDS011;46987;32.638;-115.438;2023-03-14T00:45:14;7.57;;;1.25;;
61104;SDS011;46987;32.638;-115.438;2023-03-14T00:47:41;5.45;;;1.20;;
61104;SDS011;46987;32.638;-115.438;2023-03-14T00:50:13;6.22;;;0.90;;
61104;SDS011;46987;32.638;-115.438;2023-03-14T00:52:39;5.43;;;0.80;;
61104;SDS011;46987;32.638;-115.438;2023-03-14T00:55:07;6.55;;;1.58;;
61104;SDS011;46987;32.638;-115.438;2023-03-14T00:57:33;5.40;;;1.10;;
61104;SDS011;46987;32.638;-115.438;2023-03-14T01:00:00;6.88;;;1.10;;
61104;SDS011;46987;32.638;-115.438;2023-03-14T01:02:27;3.55;;;0.60;;
61104;SDS011;46987;32.638;-115.438;2023-03-14T01:04:56;3.88;;;1.23;;
61104;SDS011;46987;32.638;-115.438;2023-03-14T01:07:24;5.25;;;1.02;;
61104;SDS011;46987;32.638;-115.438;2023-03-14T01:09:51;6.22;;;1.00;;
61104;SDS011;46987;32.638;-115.438;2023-03-14T01:12:18;3.55;;;0.90;;
61104;SDS011;46987;32.638;-115.438;2023-03-14T01:14:44;5.75;;;0.90;;
61104;SDS011;46987;32.638;-115.438;2023-03-14T01:17:11;3.38;;;0.70;;
61104;SDS011;46987;32.638;-115.438;2023-03-14T01:19:38;6.75;;;1.13;;
61104;SDS011;46987;32.638;-115.438;2023-03-14T01:22:04;3.83;;;0.82;;
61104;SDS011;46987;32.638;-115.438;2023-03-14T01:24:32;5.82;;;1.20;;
61104;SDS011;46987;32.638;-115.438;2023-03-14T01:26:59;7.85;;;3.67;;
61104;SDS011;46987;32.638;-115.438;2023-03-14T01:29:27;4.47;;;1.27;;
61104;SDS011;46987;32.638;-115.438;2023-03-14T01:31:54;5.65;;;1.10;;
61104;SDS011;46987;32.638;-115.438;2023-03-14T01:34:20;5.90;;;1.00;;
61104;SDS011;46987;32.638;-115.438;2023-03-14T01:36:48;5.25;;;0.90;;
61104;SDS011;46987;32.638;-115.438;2023-03-14T01:39:15;7.07;;;0.82;;
61104;SDS011;46987;32.638;-115.438;2023-03-14T01:41:44;4.43;;;0.95;;
61104;SDS011;46987;32.638;-115.438;2023-03-14T01:44:10;6.43;;;1.00;;
61104;SDS011;46987;32.638;-115.438;2023-03-14T01:46:38;2.95;;;1.00;;
61104;SDS011;46987;32.638;-115.438;2023-03-14T01:49:15;4.53;;;1.00;;
61104;SDS011;46987;32.638;-115.438;2023-03-14T01:51:51;6.28;;;0.98;;
61104;SDS011;46987;32.638;-115.438;2023-03-14T01:54:19;4.00;;;1.02;;
61104;SDS011;46987;32.638;-115.438;2023-03-14T01:56:50;5.53;;;1.20;;
61104;SDS011;46987;32.638;-115.438;2023-03-14T01:59:18;6.90;;;1.55;;
61104;SDS011;46987;32.638;-115.438;2023-03-14T02:01:45;8.45;;;1.58;;
61104;SDS011;46987;32.638;-115.438;2023-03-14T02:04:13;8.77;;;1.45;;
61104;SDS011;46987;32.638;-115.438;2023-03-14T02:06:47;7.70;;;1.85;;
61104;SDS011;46987;32.638;-115.438;2023-03-14T02:09:16;8.13;;;2.05;;
61104;SDS011;46987;32.638;-115.438;2023-03-14T02:11:43;10.68;;;1.55;;
61104;SDS011;46987;32.638;-115.438;2023-03-14T02:14:30;8.82;;;1.55;;
61104;SDS011;46987;32.638;-115.438;2023-03-14T02:17:36;9.63;;;2.20;;
61104;SDS011;46987;32.638;-115.438;2023-03-14T02:20:28;7.40;;;1.45;;
61104;SDS011;46987;32.638;-115.438;2023-03-14T02:22:58;7.90;;;1.42;;
61104;SDS011;46987;32.638;-115.438;2023-03-14T02:25:30;7.60;;;1.50;;
61104;SDS011;46987;32.638;-115.438;2023-03-14T02:28:00;8.13;;;1.77;;
61104;SDS011;46987;32.638;-115.438;2023-03-14T02:30:27;8.38;;;2.10;;
61104;SDS011;46987;32.638;-115.438;2023-03-14T02:32:55;10.68;;;2.17;;
61104;SDS011;46987;32.638;-115.438;2023-03-14T02:35:24;9.57;;;2.97;;
61104;SDS011;46987;32.638;-115.438;2023-03-14T02:37:53;12.60;;;2.55;;
61104;SDS011;46987;32.638;-115.438;2023-03-14T02:40:23;11.55;;;2.35;;
61104;SDS011;46987;32.638;-115.438;2023-03-14T02:42:51;17.05;;;2.72;;
61104;SDS011;46987;32.638;-115.438;2023-03-14T02:48:21;10.48;;;2.38;;
61104;SDS011;46987;32.638;-115.438;2023-03-14T02:50:49;11.38;;;2.53;;
61104;SDS011;46987;32.638;-115.438;2023-03-14T02:53:17;14.38;;;2.70;;
61104;SDS011;46987;32.638;-115.438;2023-03-14T02:55:46;24.27;;;4.00;;
61104;SDS011;46987;32.638;-115.438;2023-03-14T02:58:14;14.70;;;2.45;;
61104;SDS011;46987;32.638;-115.438;2023-03-14T03:00:42;12.07;;;3.15;;
61104;SDS011;46987;32.638;-115.438;2023-03-14T03:03:11;16.42;;;2.83;;
61104;SDS011;46987;32.638;-115.438;2023-03-14T03:05:39;10.20;;;3.08;;
61104;SDS011;46987;32.638;-115.438;2023-03-14T03:08:06;11.73;;;3.22;;
61104;SDS011;46987;32.638;-115.438;2023-03-14T03:10:33;18.65;;;3.25;;
61104;SDS011;46987;32.638;-115.438;2023-03-14T03:13:00;12.73;;;3.33;;
61104;SDS011;46987;32.638;-115.438;2023-03-14T03:15:27;10.55;;;2.92;;
61104;SDS011;46987;32.638;-115.438;2023-03-14T03:17:54;10.52;;;2.70;;
61104;SDS011;46987;32.638;-115.438;2023-03-14T03:20:21;7.63;;;2.50;;
61104;SDS011;46987;32.638;-115.438;2023-03-14T03:22:49;16.45;;;2.50;;
61104;SDS011;46987;32.638;-115.438;2023-03-14T03:25:16;8.77;;;1.98;;
61104;SDS011;46987;32.638;-115.438;2023-03-14T03:27:45;14.80;;;2.08;;
61104;SDS011;46987;32.638;-115.438;2023-03-14T03:30:12;8.38;;;1.75;;
61104;SDS011;46987;32.638;-115.438;2023-03-14T03:32:39;7.65;;;1.70;;
61104;SDS011;46987;32.638;-115.438;2023-03-14T03:35:07;8.38;;;2.15;;
61104;SDS011;46987;32.638;-115.438;2023-03-14T03:37:47;10.43;;;2.10;;
61104;SDS011;46987;32.638;-115.438;2023-03-14T03:40:16;9.57;;;2.58;;
61104;SDS011;46987;32.638;-115.438;2023-03-14T03:42:43;8.93;;;2.45;;
61104;SDS011;46987;32.638;-115.438;2023-03-14T03:45:12;10.07;;;2.72;;
61104;SDS011;46987;32.638;-115.438;2023-03-14T03:47:48;10.93;;;3.50;;
61104;SDS011;46987;32.638;-115.438;2023-03-14T03:50:15;9.30;;;3.00;;
61104;SDS011;46987;32.638;-115.438;2023-03-14T03:52:41;9.85;;;3.75;;
61104;SDS011;46987;32.638;-115.438;2023-03-14T03:55:10;9.23;;;3.50;;
61104;SDS011;46987;32.638;-115.438;2023-03-14T03:57:38;9.88;;;3.55;;
61104;SDS011;46987;32.638;-115.438;2023-03-14T04:00:05;9.48;;;3.83;;
61104;SDS011;46987;32.638;-115.438;2023-03-14T04:02:40;10.93;;;4.43;;
61104;SDS011;46987;32.638;-115.438;2023-03-14T04:05:08;14.55;;;4.82;;
61104;SDS011;46987;32.638;-115.438;2023-03-14T04:07:37;13.32;;;5.03;;
61104;SDS011;46987;32.638;-115.438;2023-03-14T04:10:05;14.40;;;5.57;;
61104;SDS011;46987;32.638;-115.438;2023-03-14T04:12:44;13.80;;;4.80;;
61104;SDS011;46987;32.638;-115.438;2023-03-14T04:15:15;10.98;;;5.07;;
61104;SDS011;46987;32.638;-115.438;2023-03-14T04:17:46;11.70;;;5.00;;
61104;SDS011;46987;32.638;-115.438;2023-03-14T04:20:16;10.35;;;5.38;;
61104;SDS011;46987;32.638;-115.438;2023-03-14T04:22:45;11.48;;;5.18;;
61104;SDS011;46987;32.638;-115.438;2023-03-14T04:25:12;11.60;;;4.63;;
61104;SDS011;46987;32.638;-115.438;2023-03-14T04:27:46;13.73;;;4.87;;
61104;SDS011;46987;32.638;-115.438;2023-03-14T04:30:20;11.45;;;4.63;;
61104;SDS011;46987;32.638;-115.438;2023-03-14T04:33:00;12.55;;;4.20;;
61104;SDS011;46987;32.638;-115.438;2023-03-14T04:35:30;10.75;;;3.75;;
61104;SDS011;46987;32.638;-115.438;2023-03-14T04:38:00;9.00;;;2.78;;
61104;SDS011;46987;32.638;-115.438;2023-03-14T04:40:47;6.65;;;2.72;;
61104;SDS011;46987;32.638;-115.438;2023-03-14T04:43:17;11.45;;;3.22;;
61104;SDS011;46987;32.638;-115.438;2023-03-14T04:45:51;8.55;;;2.65;;
61104;SDS011;46987;32.638;-115.438;2023-03-14T04:48:19;7.75;;;2.85;;
61104;SDS011;46987;32.638;-115.438;2023-03-14T04:50:48;10.63;;;2.65;;
61104;SDS011;46987;32.638;-115.438;2023-03-14T04:53:15;10.02;;;2.53;;
61104;SDS011;46987;32.638;-115.438;2023-03-14T04:55:47;8.60;;;2.60;;
61104;SDS011;46987;32.638;-115.438;2023-03-14T04:58:14;8.40;;;2.90;;
61104;SDS011;46987;32.638;-115.438;2023-03-14T05:00:44;11.80;;;2.88;;
61104;SDS011;46987;32.638;-115.438;2023-03-14T05:03:49;7.75;;;2.55;;
61104;SDS011;46987;32.638;-115.438;2023-03-14T05:06:23;9.07;;;2.72;;
61104;SDS011;46987;32.638;-115.438;2023-03-14T05:09:06;11.40;;;2.35;;
61104;SDS011;46987;32.638;-115.438;2023-03-14T05:11:55;9.48;;;2.55;;
61104;SDS011;46987;32.638;-115.438;2023-03-14T05:14:40;8.90;;;2.70;;
61104;SDS011;46987;32.638;-115.438;2023-03-14T05:17:14;7.30;;;2.65;;
61104;SDS011;46987;32.638;-115.438;2023-03-14T05:20:11;9.00;;;2.72;;
61104;SDS011;46987;32.638;-115.438;2023-03-14T05:23:18;9.18;;;2.15;;
61104;SDS011;46987;32.638;-115.438;2023-03-14T05:26:05;7.85;;;2.08;;
61104;SDS011;46987;32.638;-115.438;2023-03-14T05:28:50;8.80;;;2.90;;
61104;SDS011;46987;32.638;-115.438;2023-03-14T05:31:35;8.43;;;2.55;;
61104;SDS011;46987;32.638;-115.438;2023-03-14T05:34:39;9.80;;;2.58;;
61104;SDS011;46987;32.638;-115.438;2023-03-14T05:37:25;6.07;;;2.28;;
61104;SDS011;46987;32.638;-115.438;2023-03-14T05:40:04;6.25;;;2.20;;
61104;SDS011;46987;32.638;-115.438;2023-03-14T05:42:41;7.20;;;2.00;;
61104;SDS011;46987;32.638;-115.438;2023-03-14T05:45:37;8.98;;;1.98;;
61104;SDS011;46987;32.638;-115.438;2023-03-14T05:48:19;7.75;;;2.28;;
61104;SDS011;46987;32.638;-115.438;2023-03-14T05:51:08;7.63;;;1.67;;
61104;SDS011;46987;32.638;-115.438;2023-03-14T05:54:01;6.03;;;2.17;;
61104;SDS011;46987;32.638;-115.438;2023-03-14T05:56:43;5.45;;;2.35;;
61104;SDS011;46987;32.638;-115.438;2023-03-14T05:59:28;8.65;;;2.20;;
61104;SDS011;46987;32.638;-115.438;2023-03-14T06:02:03;7.20;;;2.13;;
61104;SDS011;46987;32.638;-115.438;2023-03-14T06:04:40;5.88;;;1.60;;
61104;SDS011;46987;32.638;-115.438;2023-03-14T06:07:09;10.25;;;1.70;;
61104;SDS011;46987;32.638;-115.438;2023-03-14T06:09:36;8.10;;;1.52;;
61104;SDS011;46987;32.638;-115.438;2023-03-14T06:12:04;5.13;;;1.25;;
61104;SDS011;46987;32.638;-115.438;2023-03-14T06:14:36;9.03;;;1.90;;
61104;SDS011;46987;32.638;-115.438;2023-03-14T06:17:02;5.88;;;1.40;;
61104;SDS011;46987;32.638;-115.438;2023-03-14T06:19:36;4.45;;;1.95;;
61104;SDS011;46987;32.638;-115.438;2023-03-14T06:22:03;6.65;;;1.50;;
61104;SDS011;46987;32.638;-115.438;2023-03-14T06:24:33;6.15;;;1.33;;
61104;SDS011;46987;32.638;-115.438;2023-03-14T06:26:59;5.88;;;1.63;;
61104;SDS011;46987;32.638;-115.438;2023-03-14T06:29:28;8.90;;;1.67;;
61104;SDS011;46987;32.638;-115.438;2023-03-14T06:31:55;4.70;;;1.10;;
61104;SDS011;46987;32.638;-115.438;2023-03-14T06:34:21;7.85;;;1.63;;
61104;SDS011;46987;32.638;-115.438;2023-03-14T06:36:48;6.40;;;1.60;;
61104;SDS011;46987;32.638;-115.438;2023-03-14T06:39:14;8.18;;;1.40;;
61104;SDS011;46987;32.638;-115.438;2023-03-14T06:41:46;4.97;;;1.15;;
61104;SDS011;46987;32.638;-115.438;2023-03-14T06:44:13;5.93;;;1.25;;
61104;SDS011;46987;32.638;-115.438;2023-03-14T06:46:39;5.82;;;1.38;;
61104;SDS011;46987;32.638;-115.438;2023-03-14T06:49:06;3.92;;;1.08;;
61104;SDS011;46987;32.638;-115.438;2023-03-14T06:51:33;5.63;;;1.35;;
61104;SDS011;46987;32.638;-115.438;2023-03-14T06:54:02;5.13;;;1.13;;
61104;SDS011;46987;32.638;-115.438;2023-03-14T06:56:29;7.03;;;1.40;;
61104;SDS011;46987;32.638;-115.438;2023-03-14T06:58:58;5.82;;;1.25;;
61104;SDS011;46987;32.638;-115.438;2023-03-14T07:01:29;5.82;;;1.27;;
61104;SDS011;46987;32.638;-115.438;2023-03-14T07:04:03;8.10;;;1.52;;
61104;SDS011;46987;32.638;-115.438;2023-03-14T07:06:30;12.40;;;10.13;;
61104;SDS011;46987;32.638;-115.438;2023-03-14T07:08:57;15.30;;;10.63;;
61104;SDS011;46987;32.638;-115.438;2023-03-14T07:11:24;20.85;;;15.00;;
61104;SDS011;46987;32.638;-115.438;2023-03-14T07:13:51;14.02;;;8.68;;
61104;SDS011;46987;32.638;-115.438;2023-03-14T07:16:20;13.65;;;9.20;;
61104;SDS011;46987;32.638;-115.438;2023-03-14T07:18:46;12.00;;;8.02;;
61104;SDS011;46987;32.638;-115.438;2023-03-14T07:21:14;12.52;;;6.22;;
61104;SDS011;46987;32.638;-115.438;2023-03-14T07:23:41;15.23;;;5.90;;
61104;SDS011;46987;32.638;-115.438;2023-03-14T07:26:08;10.98;;;4.20;;
61104;SDS011;46987;32.638;-115.438;2023-03-14T07:28:37;7.75;;;3.58;;
61104;SDS011;46987;32.638;-115.438;2023-03-14T07:31:09;8.23;;;3.22;;
61104;SDS011;46987;32.638;-115.438;2023-03-14T07:33:39;7.13;;;2.00;;
61104;SDS011;46987;32.638;-115.438;2023-03-14T07:36:07;6.30;;;1.70;;
61104;SDS011;46987;32.638;-115.438;2023-03-14T07:38:34;6.35;;;1.23;;
61104;SDS011;46987;32.638;-115.438;2023-03-14T07:41:13;5.20;;;1.40;;
61104;SDS011;46987;32.638;-115.438;2023-03-14T07:44:06;6.80;;;1.23;;
61104;SDS011;46987;32.638;-115.438;2023-03-14T07:46:32;9.05;;;2.83;;
61104;SDS011;46987;32.638;-115.438;2023-03-14T07:49:01;9.40;;;3.08;;
61104;SDS011;46987;32.638;-115.438;2023-03-14T07:51:27;6.50;;;1.75;;
61104;SDS011;46987;32.638;-115.438;2023-03-14T07:53:54;6.55;;;1.55;;
61104;SDS011;46987;32.638;-115.438;2023-03-14T07:56:20;5.22;;;1.42;;
61104;SDS011;46987;32.638;-115.438;2023-03-14T07:58:47;4.38;;;0.98;;
61104;SDS011;46987;32.638;-115.438;2023-03-14T08:01:14;4.70;;;1.42;;
61104;SDS011;46987;32.638;-115.438;2023-03-14T08:03:40;7.05;;;1.85;;
61104;SDS011;46987;32.638;-115.438;2023-03-14T08:06:08;7.18;;;1.48;;
61104;SDS011;46987;32.638;-115.438;2023-03-14T08:08:35;5.28;;;1.60;;
61104;SDS011;46987;32.638;-115.438;2023-03-14T08:11:02;6.30;;;1.60;;
61104;SDS011;46987;32.638;-115.438;2023-03-14T08:13:29;4.45;;;1.30;;
61104;SDS011;46987;32.638;-115.438;2023-03-14T08:15:56;6.22;;;1.10;;
61104;SDS011;46987;32.638;-115.438;2023-03-14T08:18:22;3.67;;;0.98;;
61104;SDS011;46987;32.638;-115.438;2023-03-14T08:20:49;8.02;;;1.20;;
61104;SDS011;46987;32.638;-115.438;2023-03-14T08:23:17;6.13;;;0.80;;
61104;SDS011;46987;32.638;-115.438;2023-03-14T08:25:44;7.68;;;1.45;;
61104;SDS011;46987;32.638;-115.438;2023-03-14T08:28:11;4.18;;;1.30;;
61104;SDS011;46987;32.638;-115.438;2023-03-14T08:30:37;5.53;;;1.38;;
61104;SDS011;46987;32.638;-115.438;2023-03-14T08:33:04;5.90;;;1.33;;
61104;SDS011;46987;32.638;-115.438;2023-03-14T08:35:30;5.03;;;1.35;;
61104;SDS011;46987;32.638;-115.438;2023-03-14T08:37:57;6.47;;;1.67;;
61104;SDS011;46987;32.638;-115.438;2023-03-14T08:40:25;6.15;;;1.60;;
61104;SDS011;46987;32.638;-115.438;2023-03-14T08:42:52;5.07;;;0.95;;
61104;SDS011;46987;32.638;-115.438;2023-03-14T08:45:19;9.07;;;2.05;;
61104;SDS011;46987;32.638;-115.438;2023-03-14T08:47:45;6.28;;;1.50;;
61104;SDS011;46987;32.638;-115.438;2023-03-14T08:50:12;5.55;;;1.10;;
61104;SDS011;46987;32.638;-115.438;2023-03-14T08:52:39;7.72;;;1.83;;
61104;SDS011;46987;32.638;-115.438;2023-03-14T08:55:07;4.30;;;1.10;;
61104;SDS011;46987;32.638;-115.438;2023-03-14T08:57:36;5.45;;;1.20;;
61104;SDS011;46987;32.638;-115.438;2023-03-14T09:00:04;3.67;;;1.10;;
61104;SDS011;46987;32.638;-115.438;2023-03-14T09:02:40;9.13;;;1.73;;
61104;SDS011;46987;32.638;-115.438;2023-03-14T09:05:07;8.68;;;1.05;;
61104;SDS011;46987;32.638;-115.438;2023-03-14T09:07:33;5.15;;;1.20;;
61104;SDS011;46987;32.638;-115.438;2023-03-14T09:10:00;8.43;;;1.35;;
61104;SDS011;46987;32.638;-115.438;2023-03-14T09:12:27;4.15;;;0.95;;
61104;SDS011;46987;32.638;-115.438;2023-03-14T09:14:55;6.72;;;1.27;;
61104;SDS011;46987;32.638;-115.438;2023-03-14T09:17:21;6.90;;;1.20;;
61104;SDS011;46987;32.638;-115.438;2023-03-14T09:19:48;8.13;;;1.45;;
61104;SDS011;46987;32.638;-115.438;2023-03-14T09:22:15;7.55;;;1.67;;
61104;SDS011;46987;32.638;-115.438;2023-03-14T09:24:41;4.60;;;1.02;;
61104;SDS011;46987;32.638;-115.438;2023-03-14T09:27:08;9.52;;;1.48;;
61104;SDS011;46987;32.638;-115.438;2023-03-14T09:29:34;5.88;;;1.00;;
61104;SDS011;46987;32.638;-115.438;2023-03-14T09:32:03;5.07;;;1.10;;
61104;SDS011;46987;32.638;-115.438;2023-03-14T09:34:29;5.43;;;1.33;;
61104;SDS011;46987;32.638;-115.438;2023-03-14T09:36:56;5.68;;;1.77;;
61104;SDS011;46987;32.638;-115.438;2023-03-14T09:39:23;4.13;;;1.27;;
61104;SDS011;46987;32.638;-115.438;2023-03-14T09:41:50;6.35;;;1.58;;
61104;SDS011;46987;32.638;-115.438;2023-03-14T09:44:19;6.47;;;1.50;;
61104;SDS011;46987;32.638;-115.438;2023-03-14T09:46:47;4.53;;;1.15;;
61104;SDS011;46987;32.638;-115.438;2023-03-14T09:49:19;4.97;;;1.10;;
61104;SDS011;46987;32.638;-115.438;2023-03-14T09:51:49;7.05;;;1.10;;
61104;SDS011;46987;32.638;-115.438;2023-03-14T09:54:19;7.50;;;1.23;;
61104;SDS011;46987;32.638;-115.438;2023-03-14T09:56:49;6.55;;;1.80;;
61104;SDS011;46987;32.638;-115.438;2023-03-14T09:59:16;5.85;;;1.25;;
61104;SDS011;46987;32.638;-115.438;2023-03-14T10:01:43;4.97;;;1.13;;
61104;SDS011;46987;32.638;-115.438;2023-03-14T10:04:10;7.80;;;1.30;;
61104;SDS011;46987;32.638;-115.438;2023-03-14T10:06:41;4.63;;;1.48;;
61104;SDS011;46987;32.638;-115.438;2023-03-14T10:09:08;6.03;;;1.50;;
61104;SDS011;46987;32.638;-115.438;2023-03-14T10:11:38;6.20;;;1.35;;
61104;SDS011;46987;32.638;-115.438;2023-03-14T10:14:06;4.43;;;1.08;;
61104;SDS011;46987;32.638;-115.438;2023-03-14T10:16:33;6.47;;;1.52;;
61104;SDS011;46987;32.638;-115.438;2023-03-14T10:19:04;5.47;;;1.20;;
61104;SDS011;46987;32.638;-115.438;2023-03-14T10:21:35;6.07;;;1.33;;
61104;SDS011;46987;32.638;-115.438;2023-03-14T10:24:10;6.22;;;1.15;;
61104;SDS011;46987;32.638;-115.438;2023-03-14T10:26:41;5.70;;;1.30;;
61104;SDS011;46987;32.638;-115.438;2023-03-14T10:29:08;7.07;;;1.63;;
61104;SDS011;46987;32.638;-115.438;2023-03-14T10:31:46;8.98;;;1.20;;
61104;SDS011;46987;32.638;-115.438;2023-03-14T10:34:15;5.03;;;1.48;;
61104;SDS011;46987;32.638;-115.438;2023-03-14T10:36:42;6.55;;;1.50;;
61104;SDS011;46987;32.638;-115.438;2023-03-14T10:42:02;4.88;;;1.42;;
61104;SDS011;46987;32.638;-115.438;2023-03-14T10:44:29;5.80;;;1.45;;
61104;SDS011;46987;32.638;-115.438;2023-03-14T10:46:56;4.88;;;1.42;;
61104;SDS011;46987;32.638;-115.438;2023-03-14T10:49:28;4.60;;;1.38;;
61104;SDS011;46987;32.638;-115.438;2023-03-14T10:51:55;4.03;;;1.17;;
61104;SDS011;46987;32.638;-115.438;2023-03-14T10:54:22;6.95;;;1.52;;
61104;SDS011;46987;32.638;-115.438;2023-03-14T10:56:56;4.20;;;1.40;;
61104;SDS011;46987;32.638;-115.438;2023-03-14T11:01:51;3.13;;;1.38;;
61104;SDS011;46987;32.638;-115.438;2023-03-14T11:04:23;6.82;;;1.63;;
61104;SDS011;46987;32.638;-115.438;2023-03-14T11:06:54;6.38;;;1.30;;
61104;SDS011;46987;32.638;-115.438;2023-03-14T11:09:23;5.65;;;1.40;;
61104;SDS011;46987;32.638;-115.438;2023-03-14T11:11:53;5.70;;;1.88;;
61104;SDS011;46987;32.638;-115.438;2023-03-14T11:14:23;6.80;;;1.48;;
61104;SDS011;46987;32.638;-115.438;2023-03-14T11:16:56;5.45;;;1.70;;
61104;SDS011;46987;32.638;-115.438;2023-03-14T11:19:27;10.00;;;1.60;;
61104;SDS011;46987;32.638;-115.438;2023-03-14T11:21:55;8.05;;;1.40;;
61104;SDS011;46987;32.638;-115.438;2023-03-14T11:24:38;4.80;;;1.40;;
61104;SDS011;46987;32.638;-115.438;2023-03-14T11:27:11;9.30;;;1.88;;
61104;SDS011;46987;32.638;-115.438;2023-03-14T11:29:40;6.68;;;2.40;;
61104;SDS011;46987;32.638;-115.438;2023-03-14T11:32:17;7.72;;;1.95;;
61104;SDS011;46987;32.638;-115.438;2023-03-14T11:34:47;6.10;;;2.30;;
61104;SDS011;46987;32.638;-115.438;2023-03-14T11:37:17;6.00;;;1.90;;
61104;SDS011;46987;32.638;-115.438;2023-03-14T11:39:47;12.60;;;3.08;;
61104;SDS011;46987;32.638;-115.438;2023-03-14T11:42:17;8.70;;;2.67;;
61104;SDS011;46987;32.638;-115.438;2023-03-14T11:44:45;10.18;;;2.60;;
61104;SDS011;46987;32.638;-115.438;2023-03-14T11:47:15;7.05;;;2.70;;
61104;SDS011;46987;32.638;-115.438;2023-03-14T11:49:45;9.07;;;2.72;;
61104;SDS011;46987;32.638;-115.438;2023-03-14T11:52:16;9.43;;;2.65;;
61104;SDS011;46987;32.638;-115.438;2023-03-14T11:54:46;8.30;;;2.60;;
61104;SDS011;46987;32.638;-115.438;2023-03-14T11:57:16;8.63;;;2.63;;
61104;SDS011;46987;32.638;-115.438;2023-03-14T11:59:46;7.78;;;3.15;;
61104;SDS011;46987;32.638;-115.438;2023-03-14T12:02:16;9.68;;;3.45;;
61104;SDS011;46987;32.638;-115.438;2023-03-14T12:04:48;9.52;;;3.55;;
61104;SDS011;46987;32.638;-115.438;2023-03-14T12:07:17;10.88;;;3.90;;
61104;SDS011;46987;32.638;-115.438;2023-03-14T12:09:45;13.00;;;5.18;;
61104;SDS011;46987;32.638;-115.438;2023-03-14T12:12:12;9.52;;;4.65;;
61104;SDS011;46987;32.638;-115.438;2023-03-14T12:14:44;11.30;;;4.57;;
61104;SDS011;46987;32.638;-115.438;2023-03-14T12:17:20;14.63;;;5.60;;
61104;SDS011;46987;32.638;-115.438;2023-03-14T12:19:47;12.57;;;5.55;;
61104;SDS011;46987;32.638;-115.438;2023-03-14T12:22:18;17.75;;;7.20;;
61104;SDS011;46987;32.638;-115.438;2023-03-14T12:24:48;19.85;;;7.97;;
61104;SDS011;46987;32.638;-115.438;2023-03-14T12:29:57;14.75;;;7.97;;
61104;SDS011;46987;32.638;-115.438;2023-03-14T12:32:26;17.88;;;7.38;;
61104;SDS011;46987;32.638;-115.438;2023-03-14T12:34:54;12.02;;;6.93;;
61104;SDS011;46987;32.638;-115.438;2023-03-14T12:37:24;14.15;;;6.05;;
61104;SDS011;46987;32.638;-115.438;2023-03-14T12:40:03;14.85;;;6.25;;
61104;SDS011;46987;32.638;-115.438;2023-03-14T12:42:40;17.83;;;6.10;;
61104;SDS011;46987;32.638;-115.438;2023-03-14T12:45:21;17.13;;;6.03;;
61104;SDS011;46987;32.638;-115.438;2023-03-14T12:47:54;35.30;;;10.07;;
61104;SDS011;46987;32.638;-115.438;2023-03-14T12:50:24;33.38;;;9.77;;
61104;SDS011;46987;32.638;-115.438;2023-03-14T12:52:55;30.00;;;10.55;;
61104;SDS011;46987;32.638;-115.438;2023-03-14T12:55:24;32.90;;;10.90;;
61104;SDS011;46987;32.638;-115.438;2023-03-14T12:57:55;33.28;;;11.07;;
61104;SDS011;46987;32.638;-115.438;2023-03-14T13:00:29;30.42;;;11.55;;
61104;SDS011;46987;32.638;-115.438;2023-03-14T13:03:02;31.20;;;10.13;;
61104;SDS011;46987;32.638;-115.438;2023-03-14T13:05:40;30.27;;;9.88;;
61104;SDS011;46987;32.638;-115.438;2023-03-14T13:08:26;29.15;;;10.73;;
61104;SDS011;46987;32.638;-115.438;2023-03-14T13:10:58;29.20;;;11.18;;
61104;SDS011;46987;32.638;-115.438;2023-03-14T13:13:25;38.42;;;13.77;;
61104;SDS011;46987;32.638;-115.438;2023-03-14T13:15:54;31.95;;;15.93;;
61104;SDS011;46987;32.638;-115.438;2023-03-14T13:18:26;43.75;;;16.27;;
61104;SDS011;46987;32.638;-115.438;2023-03-14T13:20:53;31.77;;;14.80;;
61104;SDS011;46987;32.638;-115.438;2023-03-14T13:23:20;34.30;;;15.77;;
61104;SDS011;46987;32.638;-115.438;2023-03-14T13:25:47;35.58;;;14.57;;
61104;SDS011;46987;32.638;-115.438;2023-03-14T13:28:14;42.10;;;15.63;;
61104;SDS011;46987;32.638;-115.438;2023-03-14T13:30:42;34.25;;;14.48;;
61104;SDS011;46987;32.638;-115.438;2023-03-14T13:33:12;37.80;;;12.45;;
61104;SDS011;46987;32.638;-115.438;2023-03-14T13:35:42;32.10;;;11.38;;
61104;SDS011;46987;32.638;-115.438;2023-03-14T13:38:16;29.13;;;9.90;;
61104;SDS011;46987;32.638;-115.438;2023-03-14T13:40:43;22.83;;;9.55;;
61104;SDS011;46987;32.638;-115.438;2023-03-14T13:43:14;28.15;;;8.88;;
61104;SDS011;46987;32.638;-115.438;2023-03-14T13:45:44;35.42;;;11.00;;
61104;SDS011;46987;32.638;-115.438;2023-03-14T13:48:12;30.80;;;9.68;;
61104;SDS011;46987;32.638;-115.438;2023-03-14T13:50:46;24.13;;;9.30;;
61104;SDS011;46987;32.638;-115.438;2023-03-14T13:53:13;27.97;;;9.20;;
61104;SDS011;46987;32.638;-115.438;2023-03-14T13:55:39;39.15;;;11.00;;
61104;SDS011;46987;32.638;-115.438;2023-03-14T13:58:10;39.20;;;12.77;;
61104;SDS011;46987;32.638;-115.438;2023-03-14T14:00:38;38.03;;;11.63;;
61104;SDS011;46987;32.638;-115.438;2023-03-14T14:03:08;34.55;;;11.02;;
61104;SDS011;46987;32.638;-115.438;2023-03-14T14:05:36;35.58;;;11.85;;
61104;SDS011;46987;32.638;-115.438;2023-03-14T14:08:12;39.20;;;10.43;;
61104;SDS011;46987;32.638;-115.438;2023-03-14T14:13:05;31.27;;;9.88;;
61104;SDS011;46987;32.638;-115.438;2023-03-14T14:15:35;41.47;;;12.07;;
61104;SDS011;46987;32.638;-115.438;2023-03-14T14:18:03;54.75;;;12.68;;
61104;SDS011;46987;32.638;-115.438;2023-03-14T14:20:31;49.53;;;12.07;;
61104;SDS011;46987;32.638;-115.438;2023-03-14T14:23:00;40.47;;;11.63;;
61104;SDS011;46987;32.638;-115.438;2023-03-14T14:25:30;46.30;;;12.02;;
61104;SDS011;46987;32.638;-115.438;2023-03-14T14:27:56;38.28;;;11.60;;
61104;SDS011;46987;32.638;-115.438;2023-03-14T14:30:28;39.13;;;9.75;;
61104;SDS011;46987;32.638;-115.438;2023-03-14T14:33:09;41.67;;;11.07;;
61104;SDS011;46987;32.638;-115.438;2023-03-14T14:35:36;34.80;;;10.07;;